Time;durP1;ratioP1;P1;durP2;ratioP2;P2;SDS_P1;SDS_P2;PMS_P1;PMS_P2;Temp;Humidity;BMP_temperature;BMP_pressure;BME280_temperature;BME280_humidity;BME280_pressure;Samples;Min_cycle;Max_cycle;Signal;HPM_P1;HPM_P2
2021/09/11 00:00:04;;;;;;;2.53;1.80;;;21.10;99.90;;;;;;4176197;28;20033;-75
2021/09/11 00:02:05;;;;;;;3.88;2.55;;;21.10;99.90;;;;;;4175937;28;20053;-75
2021/09/11 00:04:06;;;;;;;3.33;1.90;;;21.00;99.90;;;;;;4173828;28;20047;-75
2021/09/11 00:06:06;;;;;;;3.53;2.40;;;21.00;99.90;;;;;;4174187;28;20037;-75
2021/09/11 00:08:07;;;;;;;4.65;2.55;;;21.00;99.90;;;;;;4175931;28;20037;-75
2021/09/11 00:10:10;;;;;;;4.35;2.22;;;21.00;99.90;;;;;;4173698;28;20064;-75
2021/09/11 00:12:11;;;;;;;5.45;2.25;;;20.90;99.90;;;;;;4178254;28;20112;-75
2021/09/11 00:14:12;;;;;;;3.15;2.20;;;20.90;99.90;;;;;;4175569;28;20621;-75
2021/09/11 00:16:12;;;;;;;3.13;2.35;;;20.90;99.90;;;;;;4175742;28;20033;-75
2021/09/11 00:18:13;;;;;;;5.05;2.40;;;20.90;99.90;;;;;;4175143;28;20029;-75
2021/09/11 00:20:14;;;;;;;4.03;2.90;;;20.80;99.90;;;;;;4169076;28;20029;-75
2021/09/11 00:22:15;;;;;;;4.20;2.38;;;20.80;99.90;;;;;;4175526;28;20052;-75
2021/09/11 00:24:16;;;;;;;2.67;2.40;;;20.80;99.90;;;;;;4173871;28;20025;-75
2021/09/11 00:26:16;;;;;;;5.93;2.65;;;20.80;99.90;;;;;;4175279;28;20029;-75
2021/09/11 00:28:17;;;;;;;2.85;2.47;;;20.80;99.90;;;;;;4174848;28;20452;-75
2021/09/11 00:30:19;;;;;;;3.55;2.50;;;20.80;99.90;;;;;;4172959;28;20067;-75
2021/09/11 00:32:19;;;;;;;2.38;2.15;;;20.70;99.90;;;;;;4175227;28;20463;-75
2021/09/11 00:34:20;;;;;;;5.72;2.70;;;20.70;99.90;;;;;;4174867;28;20053;-75
2021/09/11 00:36:20;;;;;;;2.45;2.10;;;20.70;99.90;;;;;;4173643;28;20045;-75
2021/09/11 00:38:21;;;;;;;2.88;2.45;;;20.70;99.90;;;;;;4173665;28;20560;-75
2021/09/11 00:40:22;;;;;;;4.78;2.72;;;20.70;99.90;;;;;;4174802;28;20469;-75
2021/09/11 00:42:22;;;;;;;2.80;2.17;;;20.70;99.90;;;;;;4175062;28;20107;-75
2021/09/11 00:44:23;;;;;;;3.95;2.70;;;20.70;99.90;;;;;;4175088;28;20112;-75
2021/09/11 00:46:23;;;;;;;3.00;2.38;;;20.70;99.90;;;;;;4172474;28;20562;-75
2021/09/11 00:48:24;;;;;;;3.63;2.47;;;20.70;99.90;;;;;;4175344;28;20452;-75
2021/09/11 00:50:24;;;;;;;6.18;3.08;;;20.70;99.90;;;;;;4174554;28;20051;-75
2021/09/11 00:52:25;;;;;;;3.67;2.33;;;20.70;99.90;;;;;;4175181;28;20124;-75
2021/09/11 00:54:26;;;;;;;2.63;2.42;;;20.70;99.90;;;;;;4175424;28;20048;-75
2021/09/11 00:56:29;;;;;;;3.92;2.92;;;20.70;99.90;;;;;;4174677;28;20469;-74
2021/09/11 00:58:29;;;;;;;4.07;2.80;;;20.70;99.90;;;;;;4172655;28;20485;-75
2021/09/11 01:00:30;;;;;;;3.05;2.72;;;20.70;99.90;;;;;;4174388;28;20025;-76
2021/09/11 01:02:31;;;;;;;5.25;3.20;;;20.70;99.90;;;;;;4173407;28;20127;-75
2021/09/11 01:04:31;;;;;;;3.65;2.60;;;20.70;99.90;;;;;;4174988;28;20029;-75
2021/09/11 01:06:32;;;;;;;5.53;3.35;;;20.60;99.90;;;;;;4174735;28;20981;-75
2021/09/11 01:08:34;;;;;;;4.43;3.42;;;20.70;99.90;;;;;;4173410;28;20451;-75
2021/09/11 01:10:37;;;;;;;5.07;2.80;;;20.70;99.90;;;;;;4175395;28;20036;-75
2021/09/11 01:12:39;;;;;;;3.63;2.88;;;20.70;99.90;;;;;;4172658;28;20532;-75
2021/09/11 01:14:39;;;;;;;5.93;3.20;;;20.70;99.90;;;;;;4172811;28;20053;-75
2021/09/11 01:16:40;;;;;;;7.15;3.45;;;20.70;99.90;;;;;;4174868;28;20044;-75
2021/09/11 01:18:41;;;;;;;4.40;3.80;;;20.70;99.90;;;;;;4173534;28;20037;-75
2021/09/11 01:20:41;;;;;;;5.13;4.30;;;20.70;99.90;;;;;;4172719;28;20029;-75
2021/09/11 01:22:42;;;;;;;5.72;4.10;;;20.70;99.90;;;;;;4173926;28;20029;-74
2021/09/11 01:25:00;;;;;;;6.97;4.72;;;20.70;99.90;;;;;;4174462;28;20130;-75
2021/09/11 01:27:00;;;;;;;9.63;4.88;;;20.60;99.90;;;;;;4173819;28;20388;-74
2021/09/11 01:29:01;;;;;;;5.80;5.10;;;20.60;99.90;;;;;;4172847;28;20068;-75
2021/09/11 01:31:01;;;;;;;8.15;6.20;;;20.60;99.90;;;;;;4174088;28;20040;-75
2021/09/11 01:33:02;;;;;;;6.40;5.32;;;20.50;99.90;;;;;;4173749;28;20028;-75
2021/09/11 01:35:04;;;;;;;5.53;4.90;;;20.50;99.90;;;;;;4174393;28;20048;-75
2021/09/11 01:37:09;;;;;;;7.95;6.30;;;20.50;99.90;;;;;;4173980;28;20496;-75
2021/09/11 01:39:11;;;;;;;7.85;5.95;;;20.50;99.90;;;;;;4180384;28;20025;-75
2021/09/11 01:41:12;;;;;;;;;;;20.50;99.90;;;;;;4174908;28;20138;-75
2021/09/11 01:43:12;;;;;;;10.50;6.57;;;20.50;99.90;;;;;;4179154;28;19909;-75
2021/09/11 01:45:16;;;;;;;6.82;5.28;;;20.50;99.90;;;;;;4175431;28;20025;-75
2021/09/11 01:47:16;;;;;;;7.00;5.43;;;20.50;99.90;;;;;;4176883;28;20028;-74
2021/09/11 01:49:17;;;;;;;7.63;5.90;;;20.60;99.90;;;;;;4179943;28;20036;-75
2021/09/11 01:51:17;;;;;;;7.57;6.15;;;20.60;99.90;;;;;;4178096;28;20075;-75
2021/09/11 01:53:18;;;;;;;7.78;6.45;;;20.60;99.90;;;;;;4171534;28;20025;-75
2021/09/11 01:55:21;;;;;;;7.40;6.47;;;20.60;99.90;;;;;;4174064;28;20033;-75
2021/09/11 01:57:21;;;;;;;8.20;6.55;;;20.50;99.90;;;;;;4173664;28;20187;-75
2021/09/11 01:59:22;;;;;;;9.23;7.55;;;20.60;99.90;;;;;;4174337;28;20033;-75
2021/09/11 02:01:23;;;;;;;7.68;6.75;;;20.60;99.90;;;;;;4171710;28;20041;-75
2021/09/11 02:03:23;;;;;;;10.82;8.38;;;20.60;99.90;;;;;;4174365;28;20031;-75
2021/09/11 02:05:24;;;;;;;7.25;6.10;;;20.60;99.90;;;;;;4174435;28;20078;-75
2021/09/11 02:07:25;;;;;;;8.15;6.78;;;20.60;99.90;;;;;;4155622;28;20033;-75
2021/09/11 02:09:25;;;;;;;9.25;7.25;;;20.60;99.90;;;;;;4173753;28;20029;-75
2021/09/11 02:11:26;;;;;;;9.13;7.47;;;20.60;99.90;;;;;;4171678;28;20029;-74
2021/09/11 02:13:26;;;;;;;8.15;6.65;;;20.60;99.90;;;;;;4173857;28;20041;-75
2021/09/11 02:15:27;;;;;;;8.75;6.93;;;20.60;99.90;;;;;;4173930;28;20029;-75
2021/09/11 02:17:28;;;;;;;8.43;6.38;;;20.60;99.90;;;;;;4173493;28;20033;-75
2021/09/11 02:19:28;;;;;;;9.25;6.65;;;20.60;99.90;;;;;;4172111;28;20563;-75
2021/09/11 02:21:29;;;;;;;10.52;6.97;;;20.60;99.90;;;;;;4171598;28;24222;-75
2021/09/11 02:23:29;;;;;;;7.80;6.28;;;20.60;99.90;;;;;;4173427;28;20040;-74
2021/09/11 02:25:30;;;;;;;8.77;7.38;;;20.70;99.90;;;;;;4171568;28;20018;-75
2021/09/11 02:27:31;;;;;;;10.43;6.63;;;20.70;99.90;;;;;;4167704;28;20451;-75
2021/09/11 02:29:32;;;;;;;7.68;6.65;;;20.70;99.90;;;;;;4173721;28;20480;-75
2021/09/11 02:31:33;;;;;;;10.15;7.15;;;20.70;99.90;;;;;;4171571;28;20021;-75
2021/09/11 02:33:33;;;;;;;11.63;7.88;;;20.70;99.90;;;;;;4172975;28;20029;-75
2021/09/11 02:35:34;;;;;;;10.57;8.68;;;20.70;99.90;;;;;;4171715;28;20459;-75
2021/09/11 02:37:35;;;;;;;13.32;7.88;;;20.60;99.90;;;;;;4173079;28;20036;-75
2021/09/11 02:39:35;;;;;;;8.57;7.28;;;20.60;99.90;;;;;;4173115;28;20025;-75
2021/09/11 02:41:36;;;;;;;8.23;7.15;;;20.50;99.90;;;;;;4172782;28;20025;-75
2021/09/11 02:43:37;;;;;;;8.65;7.13;;;20.50;99.90;;;;;;4173190;28;20055;-75
2021/09/11 02:45:37;;;;;;;9.20;7.47;;;20.50;99.90;;;;;;4173287;28;20056;-75
2021/09/11 02:47:38;;;;;;;9.30;7.32;;;20.50;99.90;;;;;;4173434;28;20059;-75
2021/09/11 02:49:38;;;;;;;8.95;7.15;;;20.50;99.90;;;;;;4172838;28;20029;-75
2021/09/11 02:51:39;;;;;;;8.68;6.60;;;20.40;99.90;;;;;;4173384;28;20653;-75
2021/09/11 02:53:39;;;;;;;10.98;7.55;;;20.50;99.90;;;;;;4173158;28;20068;-75
2021/09/11 02:55:40;;;;;;;11.68;9.00;;;20.40;99.90;;;;;;4172953;28;20067;-75
2021/09/11 02:57:41;;;;;;;8.88;7.55;;;20.40;99.90;;;;;;4171247;28;20075;-75
2021/09/11 02:59:41;;;;;;;10.45;8.88;;;20.40;99.90;;;;;;4171017;28;20373;-75
2021/09/11 03:01:42;;;;;;;9.57;7.70;;;20.30;99.90;;;;;;4172999;28;20083;-74
2021/09/11 03:03:42;;;;;;;9.38;7.55;;;20.30;99.90;;;;;;4173016;28;20025;-75
2021/09/11 03:05:43;;;;;;;13.23;9.38;;;20.30;99.90;;;;;;4172711;28;20550;-75
2021/09/11 03:07:44;;;;;;;11.63;9.35;;;20.30;99.90;;;;;;4173104;28;20036;-75
2021/09/11 03:09:44;;;;;;;10.38;7.93;;;20.20;99.90;;;;;;4170373;28;20129;-75
2021/09/11 03:11:45;;;;;;;9.57;7.97;;;20.20;99.90;;;;;;4172910;28;20036;-75
2021/09/11 03:13:45;;;;;;;14.02;9.45;;;20.10;99.90;;;;;;4173069;28;20033;-75
2021/09/11 03:15:46;;;;;;;12.98;8.98;;;20.10;99.90;;;;;;4172811;28;20558;-75
2021/09/11 03:17:46;;;;;;;10.02;8.05;;;20.10;99.90;;;;;;4172910;28;20053;-75
2021/09/11 03:19:47;;;;;;;13.38;8.52;;;20.00;99.90;;;;;;4172612;28;20033;-75
2021/09/11 03:21:48;;;;;;;9.85;7.53;;;20.00;99.90;;;;;;4173186;28;20029;-75
2021/09/11 03:23:48;;;;;;;9.45;7.85;;;20.00;99.90;;;;;;4171405;28;20865;-75
2021/09/11 03:25:49;;;;;;;10.25;8.30;;;20.10;99.90;;;;;;4171033;28;20496;-75
2021/09/11 03:27:49;;;;;;;10.68;8.23;;;20.10;99.90;;;;;;4173219;28;20458;-75
2021/09/11 03:29:50;;;;;;;13.90;9.48;;;20.10;99.90;;;;;;4170905;28;20115;-75
2021/09/11 03:31:51;;;;;;;11.65;8.98;;;20.10;99.90;;;;;;4172989;28;20500;-75
2021/09/11 03:33:51;;;;;;;9.55;8.18;;;20.00;99.90;;;;;;4173036;28;20037;-75
2021/09/11 03:35:52;;;;;;;12.13;9.77;;;20.00;99.90;;;;;;4172397;28;20025;-75
2021/09/11 03:37:53;;;;;;;14.98;9.32;;;20.10;99.90;;;;;;4170830;28;20092;-75
2021/09/11 03:39:54;;;;;;;14.52;10.20;;;20.00;99.90;;;;;;4172588;28;20086;-74
2021/09/11 03:41:55;;;;;;;11.10;9.27;;;20.00;99.90;;;;;;4172705;28;20029;-75
2021/09/11 03:43:56;;;;;;;11.68;8.63;;;20.00;99.90;;;;;;4172984;28;20056;-75
2021/09/11 03:45:56;;;;;;;11.50;9.38;;;20.00;99.90;;;;;;4154340;28;20071;-75
2021/09/11 03:47:57;;;;;;;11.55;8.48;;;20.00;99.90;;;;;;4157047;28;20708;-75
2021/09/11 03:49:57;;;;;;;11.20;8.77;;;20.00;99.90;;;;;;4169299;28;20044;-75
2021/09/11 03:51:58;;;;;;;14.75;9.95;;;20.00;99.90;;;;;;4177580;28;20381;-75
2021/09/11 03:53:59;;;;;;;12.95;9.18;;;19.90;99.90;;;;;;4174335;28;20577;-75
2021/09/11 03:55:59;;;;;;;12.23;9.07;;;19.90;99.90;;;;;;4184587;28;20606;-75
2021/09/11 03:58:00;;;;;;;12.32;9.02;;;19.80;99.90;;;;;;4174208;28;20052;-75
2021/09/11 04:00:00;;;;;;;12.93;9.32;;;19.80;99.90;;;;;;4183010;28;20120;-75
2021/09/11 04:02:01;;;;;;;11.50;8.73;;;19.70;99.90;;;;;;4175957;28;20036;-75
2021/09/11 04:04:02;;;;;;;13.48;9.60;;;19.70;99.90;;;;;;4177746;28;20025;-75
2021/09/11 04:06:02;;;;;;;14.13;10.60;;;19.70;99.90;;;;;;4183678;28;20033;-75
2021/09/11 04:08:03;;;;;;;12.57;9.50;;;19.70;99.90;;;;;;4178281;28;20037;-75
2021/09/11 04:10:04;;;;;;;12.00;9.07;;;19.70;99.90;;;;;;4175886;28;20045;-75
2021/09/11 04:12:05;;;;;;;12.13;8.90;;;19.60;99.90;;;;;;4174338;28;20044;-75
2021/09/11 04:14:06;;;;;;;13.85;9.20;;;19.50;99.90;;;;;;4174927;28;20036;-75
2021/09/11 04:16:07;;;;;;;8.65;6.93;;;19.50;99.90;;;;;;4173315;28;20512;-75
2021/09/11 04:18:08;;;;;;;8.13;6.85;;;19.40;99.90;;;;;;4172880;28;20033;-75
2021/09/11 04:20:09;;;;;;;10.82;6.80;;;19.40;99.90;;;;;;4158229;28;20040;-75
2021/09/11 04:22:10;;;;;;;9.18;6.43;;;19.40;99.90;;;;;;4178996;28;20045;-75
2021/09/11 04:24:11;;;;;;;10.73;6.57;;;19.40;99.90;;;;;;4179071;28;20361;-74
2021/09/11 04:26:11;;;;;;;8.60;5.93;;;19.30;99.90;;;;;;4178092;28;20055;-75
2021/09/11 04:28:12;;;;;;;8.85;5.63;;;19.30;99.90;;;;;;4181775;28;20052;-75
2021/09/11 04:30:14;;;;;;;7.28;5.10;;;19.30;99.90;;;;;;4179704;28;20083;-75
2021/09/11 04:32:14;;;;;;;8.20;5.18;;;19.30;99.90;;;;;;4178430;28;20060;-75
2021/09/11 04:34:15;;;;;;;5.97;4.45;;;19.30;99.90;;;;;;4174260;28;20524;-75
2021/09/11 04:36:15;;;;;;;4.55;3.60;;;19.20;99.90;;;;;;4180312;28;20045;-75
2021/09/11 04:38:16;;;;;;;6.57;4.72;;;19.20;99.90;;;;;;4174782;28;20033;-75
2021/09/11 04:40:17;;;;;;;6.90;4.30;;;19.20;99.90;;;;;;4171251;28;20033;-75
2021/09/11 04:42:17;;;;;;;6.72;4.47;;;19.10;99.90;;;;;;4174878;28;20060;-74
2021/09/11 04:44:18;;;;;;;7.07;4.45;;;19.10;99.90;;;;;;4173533;28;20037;-73
2021/09/11 04:46:18;;;;;;;6.47;4.35;;;19.20;99.90;;;;;;4174873;28;20127;-73
2021/09/11 04:48:20;;;;;;;5.18;3.97;;;19.10;99.90;;;;;;4174708;28;20095;-74
2021/09/11 04:50:21;;;;;;;6.18;4.20;;;19.20;99.90;;;;;;4179349;28;20055;-73
2021/09/11 04:52:23;;;;;;;7.20;4.40;;;19.20;99.90;;;;;;4183998;28;20039;-73
2021/09/11 04:54:24;;;;;;;6.15;3.55;;;19.20;99.90;;;;;;4180294;28;20029;-73
2021/09/11 04:56:24;;;;;;;5.65;4.15;;;19.20;99.90;;;;;;4179704;28;20067;-74
2021/09/11 04:58:25;;;;;;;6.68;3.78;;;19.10;99.90;;;;;;4178050;28;20041;-73
2021/09/11 05:00:26;;;;;;;5.65;3.60;;;19.10;99.90;;;;;;4178268;28;20029;-74
2021/09/11 05:02:26;;;;;;;4.75;3.53;;;19.10;99.90;;;;;;4182921;28;20502;-73
2021/09/11 05:04:27;;;;;;;5.53;3.75;;;19.10;99.90;;;;;;4175084;28;20064;-74
2021/09/11 05:06:27;;;;;;;6.15;3.75;;;19.10;99.90;;;;;;4178189;28;20048;-73
2021/09/11 05:08:28;;;;;;;5.97;4.03;;;19.10;99.90;;;;;;4175821;28;20029;-73
2021/09/11 05:10:29;;;;;;;5.93;3.38;;;19.10;99.90;;;;;;4177584;28;20035;-73
2021/09/11 05:12:29;;;;;;;5.20;3.38;;;19.10;99.90;;;;;;4176381;28;20383;-74
2021/09/11 05:14:31;;;;;;;6.72;3.50;;;19.10;99.90;;;;;;4177124;28;20045;-73
2021/09/11 05:16:31;;;;;;;3.70;3.40;;;19.10;99.90;;;;;;4180872;28;20044;-73
2021/09/11 05:18:32;;;;;;;3.60;2.78;;;19.10;99.90;;;;;;4173828;28;20041;-74
2021/09/11 05:20:33;;;;;;;5.20;3.40;;;19.10;99.90;;;;;;4178348;28;20059;-73
2021/09/11 05:22:33;;;;;;;6.43;3.75;;;19.10;99.90;;;;;;4172968;28;20056;-73
2021/09/11 05:24:34;;;;;;;5.47;3.50;;;19.10;99.90;;;;;;4169888;28;20059;-73
2021/09/11 05:26:34;;;;;;;6.00;3.30;;;19.10;99.90;;;;;;4174076;28;20043;-73
2021/09/11 05:28:35;;;;;;;4.57;3.40;;;19.10;99.90;;;;;;4174816;28;20036;-74
2021/09/11 05:30:36;;;;;;;4.47;3.55;;;19.10;99.90;;;;;;4177513;28;20036;-73
2021/09/11 05:32:37;;;;;;;6.30;3.25;;;19.00;99.90;;;;;;4170570;28;20064;-74
2021/09/11 05:34:37;;;;;;;8.82;3.75;;;19.00;99.90;;;;;;4174682;28;20118;-74
2021/09/11 05:36:38;;;;;;;4.20;3.30;;;19.00;99.90;;;;;;4167673;28;20100;-73
2021/09/11 05:38:38;;;;;;;4.95;3.15;;;19.00;99.90;;;;;;4179425;28;20634;-73
2021/09/11 05:40:39;;;;;;;6.80;3.65;;;18.90;99.90;;;;;;4180877;28;20033;-74
2021/09/11 05:42:40;;;;;;;5.75;4.35;;;18.90;99.90;;;;;;4178808;28;20488;-73
2021/09/11 05:44:40;;;;;;;7.95;4.80;;;18.90;99.90;;;;;;4178795;28;20021;-73
2021/09/11 05:46:41;;;;;;;9.18;5.35;;;18.80;99.90;;;;;;4179699;28;20044;-73
2021/09/11 05:48:41;;;;;;;7.00;4.78;;;18.80;99.90;;;;;;4182269;28;20163;-73
2021/09/11 05:50:42;;;;;;;7.82;4.53;;;18.80;99.90;;;;;;4158742;28;20120;-73
2021/09/11 05:52:42;;;;;;;4.72;4.00;;;18.80;99.90;;;;;;4161562;28;20067;-73
2021/09/11 05:54:43;;;;;;;5.63;4.30;;;18.70;99.90;;;;;;4161937;28;20061;-73
2021/09/11 05:56:44;;;;;;;6.55;4.25;;;18.70;99.90;;;;;;4143799;28;21689;-73
2021/09/11 05:58:45;;;;;;;5.03;3.78;;;18.80;99.90;;;;;;4160214;28;20124;-73
2021/09/11 06:00:47;;;;;;;6.47;4.03;;;18.80;99.90;;;;;;4161183;28;20026;-73
2021/09/11 06:02:47;;;;;;;4.63;3.88;;;18.80;99.90;;;;;;4161494;28;20041;-73
2021/09/11 06:04:48;;;;;;;5.07;3.97;;;18.80;99.90;;;;;;4160676;28;20231;-73
2021/09/11 06:06:48;;;;;;;7.18;4.00;;;18.80;99.90;;;;;;4159983;28;20516;-73
2021/09/11 06:08:49;;;;;;;6.40;3.58;;;18.80;99.90;;;;;;4160581;28;20584;-73
2021/09/11 06:10:49;;;;;;;6.65;3.45;;;18.70;99.90;;;;;;4159931;28;20116;-74
2021/09/11 06:12:50;;;;;;;5.63;3.80;;;18.70;99.90;;;;;;4158126;28;20082;-75
2021/09/11 06:14:52;;;;;;;7.57;3.45;;;18.70;99.90;;;;;;4154953;28;20040;-75
2021/09/11 06:16:53;;;;;;;9.40;3.78;;;18.70;99.90;;;;;;4176358;28;20029;-75
2021/09/11 06:18:53;;;;;;;7.05;4.18;;;18.70;99.90;;;;;;4175466;28;20734;-75
2021/09/11 06:20:54;;;;;;;6.43;3.30;;;18.70;99.90;;;;;;4179556;28;20112;-74
2021/09/11 06:22:54;;;;;;;4.50;2.90;;;18.70;99.90;;;;;;4176487;28;20029;-74
2021/09/11 06:24:55;;;;;;;6.70;3.45;;;18.70;99.90;;;;;;4174662;28;20564;-75
2021/09/11 06:26:56;;;;;;;5.60;3.55;;;18.60;99.90;;;;;;4180571;28;20096;-75
2021/09/11 06:28:56;;;;;;;6.38;3.55;;;18.70;99.90;;;;;;4178307;28;20032;-74
2021/09/11 06:30:57;;;;;;;4.88;2.83;;;18.70;99.90;;;;;;4177485;28;20108;-75
2021/09/11 06:32:58;;;;;;;5.63;2.88;;;18.70;99.90;;;;;;4160762;28;20468;-74
2021/09/11 06:34:58;;;;;;;5.88;3.58;;;18.70;99.90;;;;;;4178726;28;20585;-74
2021/09/11 06:36:59;;;;;;;5.28;3.58;;;18.80;99.90;;;;;;4175021;28;20048;-75
2021/09/11 06:38:59;;;;;;;4.53;2.90;;;18.80;99.90;;;;;;4176172;28;20473;-74
2021/09/11 06:41:00;;;;;;;4.82;3.03;;;18.80;99.90;;;;;;4168217;28;20644;-74
2021/09/11 06:43:01;;;;;;;7.53;3.53;;;18.80;99.90;;;;;;4173286;28;20659;-74
2021/09/11 06:45:02;;;;;;;5.60;3.13;;;18.80;99.90;;;;;;4177360;28;20044;-74
2021/09/11 06:47:02;;;;;;;5.55;3.08;;;18.70;99.90;;;;;;4177006;28;20622;-74
2021/09/11 06:49:03;;;;;;;8.68;3.30;;;18.80;99.90;;;;;;4161368;28;20029;-75
2021/09/11 06:51:04;;;;;;;5.95;2.88;;;18.80;99.90;;;;;;4177487;28;20033;-74
2021/09/11 06:53:06;;;;;;;4.65;2.70;;;18.80;99.90;;;;;;4175198;28;20112;-75
2021/09/11 06:55:07;;;;;;;6.18;3.22;;;18.80;99.90;;;;;;4176679;28;20433;-74
2021/09/11 06:57:07;;;;;;;3.97;2.90;;;18.80;99.90;;;;;;4175998;28;20125;-75
2021/09/11 06:59:08;;;;;;;4.32;2.85;;;18.80;99.90;;;;;;4158954;28;20025;-74
2021/09/11 07:01:09;;;;;;;10.00;3.67;;;18.80;99.90;;;;;;4178388;28;20616;-74
2021/09/11 07:03:09;;;;;;;4.32;2.55;;;18.80;99.90;;;;;;4179713;28;20025;-74
2021/09/11 07:05:10;;;;;;;4.88;2.95;;;18.80;99.90;;;;;;4177527;28;20053;-74
2021/09/11 07:07:11;;;;;;;4.30;2.45;;;18.80;99.90;;;;;;4180303;28;20029;-74
2021/09/11 07:09:11;;;;;;;5.18;3.28;;;18.80;99.90;;;;;;4180167;28;20048;-74
2021/09/11 07:11:14;;;;;;;5.20;2.97;;;18.80;99.90;;;;;;4178138;28;20689;-74
2021/09/11 07:13:14;;;;;;;5.55;2.78;;;18.80;99.90;;;;;;4178552;28;20024;-75
2021/09/11 07:15:15;;;;;;;7.80;3.15;;;18.70;99.90;;;;;;4174458;28;20068;-75
2021/09/11 07:17:15;;;;;;;4.57;2.50;;;18.80;99.90;;;;;;4175127;28;20045;-75
2021/09/11 07:19:16;;;;;;;4.40;2.97;;;18.80;99.90;;;;;;4178141;28;20094;-74
2021/09/11 07:21:17;;;;;;;5.70;2.85;;;18.90;99.90;;;;;;4176817;28;20457;-74
2021/09/11 07:23:17;;;;;;;7.60;2.80;;;18.90;99.90;;;;;;4179318;28;20082;-74
2021/09/11 07:25:18;;;;;;;6.10;2.72;;;18.90;99.90;;;;;;4178177;28;20025;-74
2021/09/11 07:27:19;;;;;;;4.30;2.58;;;18.90;99.90;;;;;;4176656;28;20048;-74
2021/09/11 07:29:19;;;;;;;4.90;2.83;;;19.00;99.90;;;;;;4178169;28;20448;-74
2021/09/11 07:31:20;;;;;;;9.95;3.63;;;19.00;99.90;;;;;;4175544;28;20114;-74
2021/09/11 07:33:21;;;;;;;5.57;2.58;;;19.00;99.90;;;;;;4176494;28;20087;-74
2021/09/11 07:35:21;;;;;;;4.57;2.50;;;19.00;99.90;;;;;;4174068;28;20044;-74
2021/09/11 07:37:22;;;;;;;4.20;2.03;;;19.00;99.90;;;;;;4176159;28;20033;-75
2021/09/11 07:39:23;;;;;;;7.18;2.58;;;19.00;99.90;;;;;;4173932;28;20381;-74
2021/09/11 07:41:23;;;;;;;5.20;2.40;;;19.10;99.90;;;;;;4179543;28;20060;-75
2021/09/11 07:43:24;;;;;;;4.20;2.05;;;19.20;99.90;;;;;;4175771;28;20029;-74
2021/09/11 07:45:25;;;;;;;5.63;2.97;;;19.20;99.90;;;;;;4179356;28;20029;-74
2021/09/11 07:47:25;;;;;;;5.10;2.55;;;19.40;99.90;;;;;;4173368;28;20040;-74
2021/09/11 07:49:26;;;;;;;4.18;2.63;;;19.40;99.90;;;;;;4174989;28;20037;-74
2021/09/11 07:51:26;;;;;;;3.95;2.30;;;19.50;99.90;;;;;;4178716;28;20025;-74
2021/09/11 07:53:27;;;;;;;4.07;2.58;;;19.50;99.90;;;;;;4179351;28;20457;-74
2021/09/11 07:55:28;;;;;;;3.78;2.25;;;19.60;99.90;;;;;;4178057;28;20385;-75
2021/09/11 07:57:29;;;;;;;4.88;2.10;;;19.70;99.90;;;;;;4181409;28;20064;-74
2021/09/11 07:59:29;;;;;;;5.13;2.83;;;19.80;99.90;;;;;;4179882;28;20047;-74
2021/09/11 08:01:30;;;;;;;3.05;2.38;;;19.80;99.90;;;;;;4179465;28;20037;-74
2021/09/11 08:03:30;;;;;;;4.32;2.22;;;19.90;99.90;;;;;;4178319;28;20493;-74
2021/09/11 08:05:31;;;;;;;5.80;2.38;;;20.00;99.90;;;;;;4175924;28;20105;-75
2021/09/11 08:07:31;;;;;;;4.28;2.55;;;20.00;99.90;;;;;;4181399;28;20118;-74
2021/09/11 08:09:32;;;;;;;6.28;2.65;;;20.10;99.90;;;;;;4180427;28;20037;-75
2021/09/11 08:11:33;;;;;;;3.58;2.60;;;20.20;99.90;;;;;;4178339;28;20044;-75
2021/09/11 08:13:34;;;;;;;3.60;2.28;;;20.20;99.90;;;;;;4180243;28;20043;-75
2021/09/11 08:15:35;;;;;;;7.03;2.85;;;20.30;99.90;;;;;;4179255;28;20046;-75
2021/09/11 08:17:36;;;;;;;4.13;2.70;;;20.30;99.90;;;;;;4179970;28;20068;-75
2021/09/11 08:19:37;;;;;;;4.40;2.30;;;20.30;99.90;;;;;;4178144;28;20086;-74
2021/09/11 08:21:37;;;;;;;5.97;2.42;;;20.40;99.90;;;;;;4177951;28;20033;-75
2021/09/11 08:23:38;;;;;;;4.10;2.53;;;20.40;99.90;;;;;;4177054;28;20106;-75
2021/09/11 08:25:38;;;;;;;7.05;2.50;;;20.40;99.90;;;;;;4178342;28;20071;-75
2021/09/11 08:27:39;;;;;;;3.13;2.20;;;20.40;99.90;;;;;;4177846;28;20037;-74
2021/09/11 08:29:41;;;;;;;2.63;1.95;;;20.40;99.90;;;;;;4176734;28;20813;-74
2021/09/11 08:31:42;;;;;;;4.53;2.50;;;20.40;99.90;;;;;;4177826;28;20021;-75
2021/09/11 08:33:43;;;;;;;5.50;2.50;;;20.40;99.90;;;;;;4177734;28;20542;-74
2021/09/11 08:35:43;;;;;;;4.00;2.33;;;20.40;99.90;;;;;;4177495;28;20105;-75
2021/09/11 08:37:46;;;;;;;5.22;2.05;;;20.40;99.90;;;;;;4177087;28;20130;-75
2021/09/11 08:39:46;;;;;;;7.82;2.22;;;20.40;99.90;;;;;;4175677;28;20124;-75
2021/09/11 08:41:47;;;;;;;3.40;2.00;;;20.40;99.90;;;;;;4176848;28;20037;-75
2021/09/11 08:43:48;;;;;;;4.40;2.28;;;20.40;99.90;;;;;;4178088;28;20446;-75
2021/09/11 08:45:48;;;;;;;4.70;2.20;;;20.40;99.90;;;;;;4176281;28;20866;-74
2021/09/11 08:47:49;;;;;;;3.38;2.08;;;20.50;99.90;;;;;;4176290;28;20029;-74
2021/09/11 08:49:50;;;;;;;3.03;1.55;;;20.60;99.90;;;;;;4174310;28;20039;-74
2021/09/11 08:51:51;;;;;;;3.45;2.20;;;20.60;99.90;;;;;;4176253;28;20128;-74
2021/09/11 08:53:52;;;;;;;4.55;2.17;;;20.70;99.90;;;;;;4176560;28;20047;-74
2021/09/11 08:55:54;;;;;;;4.85;2.05;;;20.80;99.90;;;;;;4176742;28;20056;-74
2021/09/11 08:58:06;;;;;;;4.70;2.22;;;20.90;99.90;;;;;;4174319;28;20154;-74
2021/09/11 09:00:08;;;;;;;3.00;1.77;;;21.00;99.90;;;;;;4170107;28;20123;-74
2021/09/11 09:02:09;;;;;;;3.03;1.90;;;21.10;99.90;;;;;;4178220;28;20087;-74
2021/09/11 09:04:10;;;;;;;5.03;2.25;;;21.10;99.90;;;;;;4184352;28;20057;-74
2021/09/11 09:06:27;;;;;;;5.30;2.47;;;21.20;99.90;;;;;;4171417;28;20026;-74
2021/09/11 09:08:29;;;;;;;3.47;1.92;;;21.10;99.90;;;;;;4171385;28;20056;-74
2021/09/11 09:10:29;;;;;;;2.55;1.80;;;21.20;99.90;;;;;;4175041;28;20112;-75
2021/09/11 09:12:32;;;;;;;5.78;2.28;;;21.20;99.90;;;;;;4174280;28;20072;-75
2021/09/11 09:14:32;;;;;;;;;;;21.30;99.90;;;;;;4175396;28;20098;-75
2021/09/11 09:16:36;;;;;;;3.50;1.65;;;21.30;99.90;;;;;;4174122;28;20383;-75
2021/09/11 09:18:36;;;;;;;1.90;1.48;;;21.30;99.90;;;;;;4174060;28;20037;-75
2021/09/11 09:20:37;;;;;;;3.63;1.55;;;21.40;99.90;;;;;;4173485;28;20044;-75
2021/09/11 09:22:37;;;;;;;3.20;1.75;;;21.60;99.90;;;;;;4173851;28;20036;-74
2021/09/11 09:24:38;;;;;;;3.90;1.80;;;21.70;99.90;;;;;;4174423;28;20094;-75
2021/09/11 09:26:53;;;;;;;4.28;1.52;;;21.80;99.90;;;;;;4172684;28;20025;-74
2021/09/11 09:29:14;;;;;;;2.95;1.67;;;21.90;99.90;;;;;;4154919;28;20095;-75
2021/09/11 09:31:22;;;;;;;3.72;1.75;;;22.00;99.90;;;;;;4178783;28;20028;-75
2021/09/11 09:33:29;;;;;;;3.72;1.75;;;22.00;99.90;;;;;;4178864;28;20029;-75
2021/09/11 09:35:30;;;;;;;2.35;1.55;;;22.10;99.90;;;;;;4172208;28;20033;-75
2021/09/11 09:37:31;;;;;;;5.85;2.13;;;22.20;99.90;;;;;;4173227;28;20677;-75
2021/09/11 09:39:42;;;;;;;3.03;1.70;;;22.20;99.90;;;;;;4171310;28;20056;-75
2021/09/11 09:41:45;;;;;;;3.47;1.80;;;22.30;99.90;;;;;;4174325;28;20025;-75
2021/09/11 09:43:47;;;;;;;4.22;1.80;;;22.40;99.90;;;;;;4177550;28;20071;-75
2021/09/11 09:45:48;;;;;;;2.42;1.50;;;22.40;99.90;;;;;;4153522;28;20037;-74
2021/09/11 09:48:11;;;;;;;3.15;1.88;;;22.50;99.90;;;;;;4170742;28;20047;-74
2021/09/11 09:50:15;;;;;;;2.58;1.65;;;22.40;99.90;;;;;;4176729;28;20032;-75
2021/09/11 09:52:15;;;;;;;3.08;1.90;;;22.50;99.90;;;;;;4174546;28;20392;-75
2021/09/11 09:54:18;;;;;;;4.60;2.20;;;22.50;99.90;;;;;;4175116;28;20040;-75
2021/09/11 09:56:18;;;;;;;4.50;2.30;;;22.50;99.90;;;;;;4181125;28;20040;-75
2021/09/11 09:58:20;;;;;;;5.53;2.10;;;22.60;99.90;;;;;;4181376;28;20743;-75
2021/09/11 10:00:21;;;;;;;5.63;2.73;;;22.60;99.90;;;;;;4171249;28;20512;-75
2021/09/11 10:02:22;;;;;;;2.85;1.90;;;22.70;99.90;;;;;;4172045;28;20048;-75
2021/09/11 10:04:23;;;;;;;2.53;1.70;;;22.80;99.90;;;;;;4176051;28;20507;-75
2021/09/11 10:06:30;;;;;;;4.68;1.95;;;22.90;99.90;;;;;;4176832;28;20044;-75
2021/09/11 10:08:34;;;;;;;4.72;2.35;;;22.90;99.90;;;;;;4177009;28;20537;-74
2021/09/11 10:10:40;;;;;;;3.75;1.88;;;22.80;99.90;;;;;;4175697;28;20061;-74
2021/09/11 10:12:41;;;;;;;3.95;2.25;;;22.80;99.90;;;;;;4173024;28;20428;-74
2021/09/11 10:14:42;;;;;;;2.70;1.85;;;22.70;99.90;;;;;;4175456;28;20029;-74
2021/09/11 10:16:57;;;;;;;3.38;1.90;;;22.70;99.90;;;;;;4172933;28;20063;-75
2021/09/11 10:18:58;;;;;;;3.53;1.90;;;22.70;99.90;;;;;;4173630;28;20060;-75
2021/09/11 10:21:19;;;;;;;2.53;1.67;;;22.70;99.90;;;;;;4169357;28;20037;-74
2021/09/11 10:23:19;;;;;;;2.83;2.30;;;22.70;99.90;;;;;;4176202;28;20585;-74
2021/09/11 10:25:44;;;;;;;2.83;1.88;;;22.70;99.90;;;;;;4173774;28;20085;-74
2021/09/11 10:27:44;;;;;;;2.90;1.85;;;22.60;99.90;;;;;;4170631;28;20131;-74
2021/09/11 10:29:53;;;;;;;2.90;1.90;;;22.70;99.90;;;;;;4173547;28;20029;-74